createdAt,value
2023-02-03T00:00:23.123Z,7.40
2023-02-03T00:02:50.441Z,9.40
2023-02-03T00:05:18.579Z,5.60
2023-02-03T00:08:25.562Z,8.30
2023-02-03T00:10:57.078Z,7.80
2023-02-03T00:13:26.283Z,5.70
2023-02-03T00:15:53.585Z,5.20
2023-02-03T00:18:20.649Z,4.60
2023-02-03T00:20:49.299Z,7.50
2023-02-03T00:23:17.109Z,8.00
2023-02-03T00:25:44.392Z,6.00
2023-02-03T00:28:11.265Z,7.00
2023-02-03T00:30:39.249Z,7.30
2023-02-03T00:33:07.271Z,7.50
2023-02-03T00:35:35.496Z,8.40
2023-02-03T00:38:10.162Z,6.60
2023-02-03T00:40:39.990Z,4.50
2023-02-03T00:43:07.459Z,4.90
2023-02-03T00:45:34.702Z,16.00
2023-02-03T00:48:01.725Z,18.90
2023-02-03T00:50:29.001Z,6.80
2023-02-03T00:52:56.068Z,4.60
2023-02-03T00:55:23.057Z,5.00
2023-02-03T00:58:11.597Z,7.00
2023-02-03T01:01:22.730Z,5.00
2023-02-03T01:03:50.684Z,4.60
2023-02-03T01:06:21.710Z,6.30
2023-02-03T01:09:48.708Z,4.50
2023-02-03T01:12:16.004Z,4.60
2023-02-03T01:14:45.148Z,16.80
2023-02-03T01:17:13.371Z,4.70
2023-02-03T01:19:43.769Z,4.10
2023-02-03T01:22:11.109Z,4.50
2023-02-03T01:24:38.263Z,5.10
2023-02-03T01:27:06.592Z,4.60
2023-02-03T01:29:33.671Z,4.50
2023-02-03T01:32:01.625Z,3.50
2023-02-03T01:34:28.954Z,4.30
2023-02-03T01:36:56.253Z,4.60
2023-02-03T01:39:23.426Z,3.80
2023-02-03T01:41:50.454Z,4.50
2023-02-03T01:44:44.179Z,4.30
2023-02-03T01:47:24.024Z,4.10
2023-02-03T01:49:55.746Z,5.20
2023-02-03T01:52:23.073Z,3.80
2023-02-03T01:54:52.501Z,4.70
2023-02-03T01:57:28.231Z,4.70
2023-02-03T01:59:58.541Z,4.80
2023-02-03T02:05:45.405Z,7.30
2023-02-03T02:08:15.647Z,5.00
2023-02-03T02:10:42.759Z,4.70
2023-02-03T02:13:10.154Z,6.00
2023-02-03T02:16:05.021Z,5.10
2023-02-03T02:18:41.166Z,5.80
2023-02-03T02:21:23.965Z,5.00
2023-02-03T02:24:11.401Z,5.20
2023-02-03T02:27:03.816Z,5.50
2023-02-03T02:29:53.011Z,5.20
2023-02-03T02:32:36.392Z,5.80
2023-02-03T02:35:15.733Z,6.70
2023-02-03T02:37:50.169Z,4.80
2023-02-03T02:40:32.162Z,5.50
2023-02-03T02:43:20.179Z,4.50
2023-02-03T02:45:52.460Z,4.70
2023-02-03T02:48:34.106Z,4.10
2023-02-03T02:51:04.159Z,5.20
2023-02-03T02:53:38.141Z,3.50
2023-02-03T02:56:11.736Z,3.30
2023-02-03T02:58:42.391Z,4.50
2023-02-03T03:01:10.105Z,3.30
2023-02-03T03:03:40.963Z,3.40
2023-02-03T03:06:16.049Z,3.70
2023-02-03T03:08:57.703Z,3.40
2023-02-03T03:11:34.933Z,3.90
2023-02-03T03:14:06.107Z,4.50
2023-02-03T03:16:37.870Z,4.60
2023-02-03T03:19:13.444Z,3.70
2023-02-03T03:21:48.400Z,4.10
2023-02-03T03:24:22.279Z,3.40
2023-02-03T03:26:59.409Z,5.80
2023-02-03T03:29:45.237Z,5.00
2023-02-03T03:32:13.539Z,4.40
2023-02-03T03:34:41.465Z,2.80
2023-02-03T03:37:15.235Z,3.80
2023-02-03T03:39:55.492Z,3.70
2023-02-03T03:43:19.578Z,3.30
2023-02-03T03:46:00.141Z,3.20
2023-02-03T03:48:44.333Z,3.50
2023-02-03T03:51:23.903Z,2.90
2023-02-03T03:53:52.451Z,5.30
2023-02-03T03:56:32.576Z,2.50
2023-02-03T03:59:02.799Z,4.10
2023-02-03T04:01:31.026Z,3.40
2023-02-03T04:04:03.781Z,3.70
2023-02-03T04:06:30.861Z,4.10
2023-02-03T04:08:57.930Z,3.40
2023-02-03T04:11:43.921Z,4.20
2023-02-03T04:14:10.984Z,3.40
2023-02-03T04:16:37.923Z,3.20
2023-02-03T04:19:08.143Z,4.10
2023-02-03T04:21:39.000Z,6.10
2023-02-03T04:24:06.361Z,4.10
2023-02-03T04:26:34.212Z,3.80
2023-02-03T04:29:03.905Z,3.90
2023-02-03T04:31:31.101Z,4.20
2023-02-03T04:33:58.261Z,3.70
2023-02-03T04:36:25.092Z,4.00
2023-02-03T04:38:52.190Z,4.00
2023-02-03T04:41:19.743Z,4.10
2023-02-03T04:43:46.767Z,4.20
2023-02-03T04:46:14.399Z,9.00
2023-02-03T04:48:41.563Z,5.10
2023-02-03T04:51:09.551Z,5.60
2023-02-03T04:53:39.923Z,4.90
2023-02-03T04:56:07.885Z,3.90
2023-02-03T04:58:34.948Z,6.10
2023-02-03T05:01:08.553Z,3.80
2023-02-03T05:03:35.905Z,4.40
2023-02-03T05:06:04.176Z,3.50
2023-02-03T05:08:31.834Z,4.30
2023-02-03T05:11:01.773Z,4.10
2023-02-03T05:13:30.289Z,4.10
2023-02-03T05:16:01.096Z,4.30
2023-02-03T05:18:28.199Z,5.00
2023-02-03T05:20:55.714Z,6.90
2023-02-03T05:23:23.993Z,4.20
2023-02-03T05:25:50.934Z,4.60
2023-02-03T05:28:17.981Z,4.20
2023-02-03T05:30:47.036Z,3.40
2023-02-03T05:33:14.246Z,4.50
2023-02-03T05:35:41.234Z,5.40
2023-02-03T05:38:08.450Z,6.60
2023-02-03T05:40:53.966Z,4.80
2023-02-03T05:43:21.835Z,7.40
2023-02-03T05:45:48.818Z,5.30
2023-02-03T05:48:16.008Z,7.30
2023-02-03T05:50:43.390Z,4.80
2023-02-03T05:53:10.316Z,5.30
2023-02-03T05:55:38.353Z,4.50
2023-02-03T05:58:06.026Z,4.40
2023-02-03T06:00:33.211Z,6.60
2023-02-03T06:03:04.964Z,8.30
2023-02-03T06:05:33.536Z,7.70
2023-02-03T06:08:01.088Z,10.30
2023-02-03T06:10:29.005Z,9.80
2023-02-03T06:12:57.717Z,8.20
2023-02-03T06:15:24.642Z,12.10
2023-02-03T06:17:51.554Z,9.40
2023-02-03T06:20:20.839Z,11.70
2023-02-03T06:22:48.167Z,14.50
2023-02-03T06:25:15.290Z,12.30
2023-02-03T06:27:43.642Z,15.70
2023-02-03T06:30:11.725Z,11.70
2023-02-03T06:32:39.162Z,15.70
2023-02-03T06:35:07.927Z,10.30
2023-02-03T06:37:36.022Z,11.70
2023-02-03T06:40:04.637Z,9.70
2023-02-03T06:42:31.739Z,12.40
2023-02-03T06:45:31.245Z,10.90
2023-02-03T06:47:59.305Z,10.20
2023-02-03T06:50:26.369Z,10.80
2023-02-03T06:52:53.635Z,8.70
2023-02-03T06:55:23.857Z,11.10
2023-02-03T06:57:50.990Z,14.10
2023-02-03T07:00:19.534Z,10.00
2023-02-03T07:02:47.197Z,12.30
2023-02-03T07:05:18.086Z,10.00
2023-02-03T07:07:45.060Z,9.20
2023-02-03T07:10:13.024Z,12.80
2023-02-03T07:12:39.989Z,11.80
2023-02-03T07:15:07.559Z,14.00
2023-02-03T08:07:32.639Z,11.10
2023-02-03T08:10:02.618Z,13.60
2023-02-03T08:12:28.913Z,14.50
2023-02-03T08:14:58.019Z,14.10
2023-02-03T08:17:25.310Z,12.80
2023-02-03T08:19:51.868Z,14.50
2023-02-03T08:22:19.491Z,9.70
2023-02-03T08:24:49.603Z,15.60
2023-02-03T08:27:19.028Z,14.00
2023-02-03T08:29:48.241Z,12.20
2023-02-03T08:32:19.386Z,14.00
2023-02-03T08:34:45.809Z,12.40
2023-02-03T08:37:13.968Z,13.00
2023-02-03T08:39:41.663Z,13.10
2023-02-03T08:42:08.336Z,14.10
2023-02-03T08:44:35.724Z,13.00
2023-02-03T08:47:02.235Z,11.90
2023-02-03T08:49:29.999Z,14.20
2023-02-03T08:51:57.570Z,10.40
2023-02-03T08:54:24.710Z,14.70
2023-02-03T08:56:51.771Z,12.30
2023-02-03T08:59:20.069Z,12.50
2023-02-03T09:01:48.264Z,10.80
2023-02-03T12:48:46.579Z,8.80
2023-02-03T12:51:23.517Z,8.60
2023-02-03T12:53:56.699Z,7.40
2023-02-03T12:56:33.503Z,8.30
2023-02-03T12:59:37.055Z,7.60
2023-02-03T13:02:25.745Z,5.30
2023-02-03T13:05:20.142Z,7.20
2023-02-03T13:07:53.991Z,7.80
2023-02-03T13:10:33.441Z,7.80
2023-02-03T13:13:01.000Z,7.90
2023-02-03T13:15:29.767Z,7.70
2023-02-03T13:18:18.372Z,8.00
2023-02-03T13:20:45.430Z,7.20
2023-02-03T13:23:14.298Z,6.90
2023-02-03T13:26:13.648Z,7.70
2023-02-03T13:29:12.552Z,6.00
2023-02-03T13:32:16.632Z,6.70
2023-02-03T13:34:55.877Z,7.80
2023-02-03T13:38:04.333Z,7.70
2023-02-03T13:41:00.288Z,6.50
2023-02-03T13:43:40.135Z,8.30
2023-02-03T13:46:29.281Z,6.00
2023-02-03T13:52:29.090Z,4.90
2023-02-03T14:32:29.367Z,3.10
2023-02-03T14:34:58.472Z,3.30
2023-02-03T14:37:28.893Z,3.90
2023-02-03T14:40:08.440Z,3.00
2023-02-03T14:43:04.837Z,3.70
2023-02-03T14:46:04.518Z,4.00
2023-02-03T14:49:08.358Z,4.50
2023-02-03T14:52:12.670Z,4.10
2023-02-03T14:54:58.193Z,5.90
2023-02-03T14:57:43.602Z,6.40
2023-02-03T15:00:19.575Z,6.20
2023-02-03T15:03:09.643Z,7.30
2023-02-03T15:05:43.599Z,8.90
2023-02-03T15:08:48.552Z,9.50
2023-02-03T15:11:28.809Z,8.20
2023-02-03T15:13:58.231Z,11.30
2023-02-03T15:16:26.920Z,9.70
2023-02-03T15:18:56.337Z,12.60
2023-02-03T15:21:25.203Z,15.40
2023-02-03T15:23:53.050Z,12.40
2023-02-03T15:26:26.372Z,22.10
2023-02-03T15:29:03.890Z,23.80
2023-02-03T15:31:38.860Z,33.90
2023-02-03T15:34:30.180Z,39.70
2023-02-03T15:37:00.829Z,38.00
2023-02-03T15:39:45.981Z,38.70
2023-02-03T15:42:21.619Z,26.70
2023-02-03T15:44:58.527Z,28.50
2023-02-03T15:47:55.058Z,24.20
2023-02-03T15:50:30.557Z,12.00
2023-02-03T15:53:04.305Z,11.40
2023-02-03T15:55:43.375Z,9.60
2023-02-03T15:58:44.363Z,10.90
2023-02-03T16:01:18.181Z,9.70
2023-02-03T16:03:52.748Z,8.20
2023-02-03T16:07:03.876Z,7.70
2023-02-03T16:09:41.774Z,8.00
2023-02-03T16:12:16.574Z,8.70
2023-02-03T16:14:55.578Z,8.00
2023-02-03T16:17:55.075Z,9.40
2023-02-03T16:25:08.157Z,9.60
2023-02-03T16:28:17.723Z,11.10
2023-02-03T17:31:06.531Z,16.90
2023-02-03T17:33:34.560Z,24.90
2023-02-03T17:36:24.042Z,19.20
2023-02-03T17:53:30.981Z,17.60
2023-02-03T17:56:43.517Z,17.50
2023-02-03T17:59:34.653Z,11.00
2023-02-03T18:02:30.000Z,14.10
2023-02-03T18:05:42.429Z,9.70
2023-02-03T18:09:30.712Z,15.10
2023-02-03T18:13:18.693Z,10.30
2023-02-03T18:17:12.446Z,11.80
2023-02-03T18:21:01.802Z,12.10
2023-02-03T18:24:52.042Z,7.10
2023-02-03T18:28:39.263Z,7.30
2023-02-03T18:32:26.774Z,4.30
2023-02-03T18:36:16.811Z,3.80
2023-02-03T18:40:06.236Z,5.60
2023-02-03T18:44:31.162Z,5.70
2023-02-03T18:47:43.120Z,5.20
2023-02-03T18:51:29.886Z,5.90
2023-02-03T18:55:18.992Z,5.40
2023-02-03T18:59:07.279Z,7.20
2023-02-03T19:02:56.307Z,11.60
2023-02-03T19:06:26.290Z,5.80
2023-02-03T19:09:54.927Z,9.20
2023-02-03T19:13:42.937Z,11.50
2023-02-03T19:17:22.939Z,9.10
2023-02-03T19:20:51.111Z,11.60
2023-02-03T19:24:17.110Z,12.00
2023-02-03T19:28:03.391Z,7.80
2023-02-03T19:31:52.352Z,7.30
2023-02-03T19:35:38.517Z,8.20
2023-02-03T19:39:25.053Z,8.40
2023-02-03T19:43:11.696Z,7.00
2023-02-03T19:46:44.732Z,9.00
2023-02-03T19:50:13.502Z,6.60
2023-02-03T19:54:01.846Z,11.40
2023-02-03T19:57:38.952Z,7.40
2023-02-03T20:16:55.153Z,6.60
2023-02-03T20:20:00.551Z,6.40
2023-02-03T20:22:30.585Z,5.50
2023-02-03T20:25:00.004Z,4.90
2023-02-03T20:27:27.964Z,5.40
2023-02-03T20:29:55.179Z,3.80
2023-02-03T20:32:22.395Z,4.20
2023-02-03T20:34:49.627Z,4.70
2023-02-03T20:37:17.558Z,3.80
2023-02-03T20:39:44.898Z,7.10
2023-02-03T20:42:20.120Z,3.60
2023-02-03T20:44:47.141Z,2.90
2023-02-03T20:47:18.858Z,4.70
2023-02-03T20:49:46.457Z,4.20
2023-02-03T20:52:15.388Z,3.20
2023-02-03T20:54:55.827Z,4.30
2023-02-03T20:57:26.306Z,3.80
2023-02-03T20:59:53.574Z,6.00
2023-02-03T21:02:35.442Z,3.10
2023-02-03T21:05:25.230Z,8.40
2023-02-03T21:07:52.830Z,5.30
2023-02-03T21:10:23.112Z,5.90
2023-02-03T21:12:50.572Z,4.50
2023-02-03T21:15:33.057Z,5.90
2023-02-03T21:18:00.664Z,4.30
2023-02-03T21:20:30.870Z,5.50
2023-02-03T21:22:59.743Z,5.40
2023-02-03T21:25:36.458Z,7.10
2023-02-03T21:28:06.319Z,5.40
2023-02-03T21:30:35.388Z,5.70
2023-02-03T21:33:51.194Z,6.80
2023-02-03T21:36:20.552Z,3.70
2023-02-03T21:39:02.096Z,5.10
2023-02-03T21:41:34.378Z,4.60
2023-02-03T21:44:02.337Z,4.60
2023-02-03T21:46:33.688Z,7.80
2023-02-03T21:49:02.482Z,6.80
2023-02-03T21:51:38.926Z,5.50
2023-02-03T21:54:23.527Z,5.30
2023-02-03T21:56:54.668Z,5.80
2023-02-03T21:59:28.935Z,5.00
2023-02-03T22:01:58.978Z,5.70
2023-02-03T22:04:30.520Z,5.50
2023-02-03T22:06:57.789Z,3.90
2023-02-03T22:09:27.592Z,5.00
2023-02-03T22:11:54.850Z,4.20
2023-02-03T22:14:22.321Z,5.70
2023-02-03T22:16:50.192Z,4.40
2023-02-03T22:19:17.936Z,3.60
2023-02-03T22:21:45.170Z,7.20
2023-02-03T22:24:13.208Z,5.10
2023-02-03T22:26:40.243Z,5.00
2023-02-03T22:29:07.564Z,5.20
2023-02-03T22:31:35.166Z,3.50
2023-02-03T22:34:02.340Z,5.50
2023-02-03T22:36:29.777Z,4.70
2023-02-03T22:38:57.719Z,4.10
2023-02-03T22:41:24.612Z,4.80
2023-02-03T22:43:52.008Z,5.10
2023-02-03T22:46:20.465Z,7.60
2023-02-03T22:48:47.944Z,4.40
2023-02-03T22:51:15.466Z,4.10
2023-02-03T22:53:45.644Z,5.40
2023-02-03T22:56:12.702Z,4.50
2023-02-03T22:58:39.773Z,6.30
2023-02-03T23:01:06.877Z,4.60
2023-02-03T23:03:34.124Z,5.90
2023-02-03T23:06:01.495Z,4.90
2023-02-03T23:08:28.980Z,4.70
2023-02-03T23:10:56.619Z,3.90
2023-02-03T23:13:23.790Z,3.80
2023-02-03T23:15:52.154Z,4.40
2023-02-03T23:18:19.412Z,5.10
2023-02-03T23:20:46.544Z,6.50
2023-02-03T23:23:14.675Z,4.40
2023-02-03T23:25:41.708Z,5.60
2023-02-03T23:28:08.971Z,5.80
2023-02-03T23:30:37.126Z,3.90
2023-02-03T23:33:04.154Z,4.90
2023-02-03T23:35:46.510Z,5.40
2023-02-03T23:38:15.595Z,4.20
2023-02-03T23:40:43.333Z,3.30
2023-02-03T23:43:11.433Z,5.40
2023-02-03T23:45:38.760Z,3.70
2023-02-03T23:48:06.379Z,5.10
2023-02-03T23:50:33.807Z,5.90
2023-02-03T23:53:01.314Z,4.00
2023-02-03T23:55:31.600Z,6.30
2023-02-03T23:57:59.049Z,3.70
